Time;durP1;ratioP1;P1;durP2;ratioP2;P2;SDS_P1;SDS_P2;PMS_P1;PMS_P2;Temp;Humidity;BMP_temperature;BMP_pressure;BME280_temperature;BME280_humidity;BME280_pressure;Samples;Min_cycle;Max_cycle;Signal;HPM_P1;HPM_P2
2022/09/25 00:00:22;;;;;;;10.85;5.03;;;10.90;88.30;;;;;;4918114;29;20047;-75
2022/09/25 00:02:48;;;;;;;11.52;5.03;;;10.90;88.40;;;;;;4922085;29;20396;-75
2022/09/25 00:05:15;;;;;;;10.20;4.50;;;10.80;88.60;;;;;;4898991;29;20058;-76
2022/09/25 00:07:40;;;;;;;13.43;5.05;;;10.80;88.70;;;;;;4900250;29;20441;-76
2022/09/25 00:10:06;;;;;;;11.48;5.18;;;10.80;88.80;;;;;;4909961;29;20543;-75
2022/09/25 00:12:32;;;;;;;11.65;4.82;;;10.80;88.80;;;;;;4921321;29;20086;-74
2022/09/25 00:14:58;;;;;;;9.77;4.10;;;10.70;88.80;;;;;;4918758;28;20043;-75
2022/09/25 00:17:24;;;;;;;12.02;4.43;;;10.70;88.90;;;;;;4918757;29;20134;-74
2022/09/25 00:19:50;;;;;;;11.00;4.85;;;10.60;89.00;;;;;;4905034;29;20099;-74
2022/09/25 00:22:21;;;;;;;11.05;4.85;;;10.60;89.10;;;;;;4916473;29;20464;-73
2022/09/25 00:24:47;;;;;;;9.68;4.65;;;10.60;89.20;;;;;;4918943;29;20636;-75
2022/09/25 00:27:13;;;;;;;12.57;5.38;;;10.60;89.20;;;;;;4917342;29;20055;-76
2022/09/25 00:29:40;;;;;;;7.97;4.32;;;10.60;89.20;;;;;;4915800;29;20036;-75
2022/09/25 00:32:07;;;;;;;14.05;4.72;;;10.60;89.10;;;;;;4922409;29;20063;-76
2022/09/25 00:34:33;;;;;;;9.00;4.88;;;10.60;89.20;;;;;;4915943;29;20063;-76
2022/09/25 00:36:59;;;;;;;12.18;4.97;;;10.50;89.10;;;;;;4917281;29;20039;-77
2022/09/25 00:39:25;;;;;;;9.32;4.82;;;10.50;89.20;;;;;;4926305;29;21611;-75
2022/09/25 00:41:52;;;;;;;11.55;5.05;;;10.50;89.30;;;;;;4920641;29;20044;-75
2022/09/25 00:44:55;;;;;;;10.82;4.35;;;10.50;89.30;;;;;;4914668;29;20084;-78
2022/09/25 00:47:23;;;;;;;10.18;5.03;;;10.40;89.40;;;;;;4926551;28;20484;-75
2022/09/25 00:49:51;;;;;;;10.50;4.60;;;10.40;89.50;;;;;;4919640;29;20050;-75
2022/09/25 00:52:17;;;;;;;12.13;5.65;;;10.40;89.50;;;;;;4900725;29;20132;-77
2022/09/25 00:54:54;;;;;;;11.70;5.93;;;10.40;89.50;;;;;;4922337;28;20051;-75
2022/09/25 00:57:25;;;;;;;11.75;5.35;;;10.40;89.70;;;;;;4916080;29;20039;-75
2022/09/25 00:59:56;;;;;;;8.73;4.55;;;10.30;89.70;;;;;;4924822;28;20030;-75
2022/09/25 01:02:30;;;;;;;8.63;4.90;;;10.40;90.00;;;;;;4922032;29;20027;-76
2022/09/25 01:05:00;;;;;;;;;;;10.40;89.90;;;;;;4918046;28;20054;-75
2022/09/25 01:07:26;;;;;;;9.73;4.78;;;10.40;90.00;;;;;;4920731;29;19930;-76
2022/09/25 01:09:53;;;;;;;10.50;4.60;;;10.40;90.00;;;;;;4927949;29;20031;-75
2022/09/25 01:12:19;;;;;;;7.97;4.47;;;10.40;90.00;;;;;;4919976;29;20044;-75
2022/09/25 01:14:45;;;;;;;10.20;5.13;;;10.40;90.00;;;;;;4921739;29;20539;-76
2022/09/25 01:17:34;;;;;;;10.18;4.80;;;10.40;90.00;;;;;;4916489;29;20035;-76
2022/09/25 01:20:39;;;;;;;8.60;4.65;;;10.40;90.00;;;;;;4908320;29;20038;-75
2022/09/25 01:23:14;;;;;;;;;;;10.40;90.10;;;;;;4913162;29;20078;-76
2022/09/25 01:25:59;;;;;;;9.70;4.15;;;10.30;90.00;;;;;;4918668;28;19974;-75
2022/09/25 01:28:30;;;;;;;12.13;4.70;;;10.30;89.70;;;;;;4919783;29;20086;-76
2022/09/25 01:31:05;;;;;;;12.43;5.18;;;10.40;89.70;;;;;;4922407;28;20126;-76
2022/09/25 01:33:40;;;;;;;12.25;5.35;;;10.40;89.70;;;;;;4922456;28;20361;-75
2022/09/25 01:36:16;;;;;;;10.30;4.78;;;10.40;89.70;;;;;;4908758;29;20570;-75
2022/09/25 01:38:53;;;;;;;11.35;4.50;;;10.40;89.80;;;;;;4919741;29;20546;-74
2022/09/25 01:41:38;;;;;;;7.93;4.18;;;10.50;89.80;;;;;;4915957;29;20254;-77
2022/09/25 01:44:27;;;;;;;11.52;5.47;;;10.50;89.90;;;;;;4917628;29;20032;-75
2022/09/25 01:46:58;;;;;;;9.43;4.78;;;10.50;89.90;;;;;;4915912;29;20066;-74
2022/09/25 01:49:30;;;;;;;12.05;5.30;;;10.50;89.90;;;;;;4912851;29;20551;-75
2022/09/25 01:52:00;;;;;;;12.50;6.00;;;10.50;90.00;;;;;;4915598;29;20028;-77
2022/09/25 01:54:43;;;;;;;11.25;5.50;;;10.50;90.00;;;;;;4920305;29;20388;-75
2022/09/25 01:57:20;;;;;;;9.15;4.60;;;10.50;90.00;;;;;;4925284;28;20036;-76
2022/09/25 02:00:05;;;;;;;10.02;5.43;;;10.50;90.10;;;;;;4919806;28;20032;-75
2022/09/25 02:02:38;;;;;;;7.78;4.63;;;10.60;90.20;;;;;;4918079;29;20043;-75
2022/09/25 02:05:19;;;;;;;9.07;4.60;;;10.60;90.20;;;;;;4913451;29;20044;-75
2022/09/25 02:07:58;;;;;;;9.45;4.72;;;10.60;90.10;;;;;;4918342;29;20048;-75
2022/09/25 02:10:41;;;;;;;8.27;4.70;;;10.50;89.90;;;;;;4921774;29;20035;-75
2022/09/25 02:13:13;;;;;;;10.38;4.88;;;10.50;89.90;;;;;;4918115;29;20045;-75
2022/09/25 02:16:01;;;;;;;11.30;4.95;;;10.40;89.90;;;;;;4904204;28;20098;-75
2022/09/25 02:21:32;;;;;;;8.00;4.50;;;10.40;90.10;;;;;;4908702;29;20050;-78
2022/09/25 02:24:13;;;;;;;13.35;5.20;;;10.40;90.20;;;;;;4902092;28;20056;-75
2022/09/25 02:26:38;;;;;;;8.65;4.90;;;10.30;90.20;;;;;;4896834;29;20043;-75
2022/09/25 02:29:05;;;;;;;10.60;5.32;;;10.30;90.20;;;;;;4902301;28;20040;-76
2022/09/25 02:31:55;;;;;;;10.93;4.68;;;10.10;90.30;;;;;;4901978;29;20369;-77
2022/09/25 02:34:22;;;;;;;11.05;4.45;;;10.10;90.20;;;;;;4895407;29;20124;-75
2022/09/25 02:36:48;;;;;;;10.90;5.10;;;10.10;89.90;;;;;;4906077;29;20480;-76
2022/09/25 02:39:17;;;;;;;11.82;5.22;;;10.00;89.70;;;;;;4905711;29;20025;-75
2022/09/25 02:41:55;;;;;;;10.98;4.47;;;9.90;89.80;;;;;;4904652;29;20434;-75
2022/09/25 02:44:34;;;;;;;10.10;5.30;;;9.80;89.80;;;;;;4894226;28;20124;-76
2022/09/25 02:47:16;;;;;;;9.45;5.03;;;9.80;89.90;;;;;;4902907;29;20369;-75
2022/09/25 02:49:48;;;;;;;11.45;5.13;;;9.80;90.00;;;;;;4890736;29;20040;-74
2022/09/25 02:52:32;;;;;;;8.93;4.93;;;9.80;90.10;;;;;;4904947;29;20040;-75
2022/09/25 02:55:04;;;;;;;11.13;5.07;;;9.80;90.20;;;;;;4906906;28;20054;-77
2022/09/25 02:57:35;;;;;;;12.38;5.53;;;9.70;90.40;;;;;;4926656;28;20280;-74
2022/09/25 03:00:06;;;;;;;12.80;5.90;;;9.70;90.40;;;;;;4910354;29;20590;-75
2022/09/25 03:02:33;;;;;;;10.18;5.13;;;9.60;90.30;;;;;;4895114;29;20060;-76
2022/09/25 03:05:01;;;;;;;10.80;5.28;;;9.60;90.30;;;;;;4896409;28;20039;-74
2022/09/25 03:07:27;;;;;;;11.75;5.40;;;9.50;90.30;;;;;;4901875;29;20068;-75
2022/09/25 03:09:56;;;;;;;13.32;5.43;;;9.50;90.40;;;;;;4906306;28;20028;-76
2022/09/25 03:12:21;;;;;;;10.65;4.60;;;9.50;90.40;;;;;;4908267;29;20044;-75
2022/09/25 03:14:47;;;;;;;9.73;4.95;;;9.50;90.50;;;;;;4924602;28;21386;-75
2022/09/25 03:17:14;;;;;;;8.23;4.68;;;9.40;90.40;;;;;;4917605;29;20088;-75
2022/09/25 03:19:40;;;;;;;8.95;4.88;;;9.40;90.20;;;;;;4915732;28;20124;-77
2022/09/25 03:22:06;;;;;;;9.95;4.82;;;9.30;90.20;;;;;;4919630;29;20032;-75
2022/09/25 03:24:32;;;;;;;11.38;5.22;;;9.30;90.20;;;;;;4918280;28;20060;-75
2022/09/25 03:26:57;;;;;;;11.88;5.30;;;9.30;90.30;;;;;;4928076;29;20028;-75
2022/09/25 03:29:23;;;;;;;10.75;4.90;;;9.20;90.20;;;;;;4914903;28;20048;-77
2022/09/25 03:31:49;;;;;;;8.80;4.70;;;9.20;90.40;;;;;;4917780;29;20038;-74
2022/09/25 03:34:16;;;;;;;8.00;4.68;;;9.10;90.20;;;;;;4917111;28;20172;-74
2022/09/25 03:36:46;;;;;;;10.95;4.68;;;9.10;90.00;;;;;;4918336;29;20044;-75
2022/09/25 03:39:14;;;;;;;10.27;5.45;;;9.10;90.00;;;;;;4914686;28;20186;-76
2022/09/25 03:41:40;;;;;;;9.45;4.88;;;9.10;89.90;;;;;;4906912;29;20444;-74
2022/09/25 03:44:06;;;;;;;9.60;5.18;;;9.10;89.80;;;;;;4920161;28;20475;-76
2022/09/25 03:46:33;;;;;;;9.32;4.93;;;9.10;89.90;;;;;;4917842;29;20054;-74
2022/09/25 03:48:59;;;;;;;9.77;5.32;;;9.00;90.00;;;;;;4915586;28;20028;-74
2022/09/25 03:51:27;;;;;;;8.30;4.88;;;9.00;90.00;;;;;;4919738;29;20034;-75
2022/09/25 03:53:53;;;;;;;11.35;5.10;;;9.00;90.20;;;;;;4917709;28;20054;-74
2022/09/25 03:56:22;;;;;;;7.93;5.03;;;9.00;90.30;;;;;;4920819;28;20035;-76
2022/09/25 03:58:49;;;;;;;12.05;5.85;;;9.00;90.30;;;;;;4920886;28;20558;-76
2022/09/25 04:01:18;;;;;;;12.68;5.68;;;9.10;90.40;;;;;;4914115;29;20031;-75
2022/09/25 04:03:45;;;;;;;15.55;6.40;;;9.10;90.60;;;;;;4921333;28;20146;-74
2022/09/25 04:06:12;;;;;;;11.50;6.03;;;9.10;90.80;;;;;;4897594;29;20063;-74
2022/09/25 04:08:38;;;;;;;10.55;6.53;;;9.20;90.90;;;;;;4919643;28;20259;-74
2022/09/25 04:11:04;;;;;;;10.90;6.22;;;9.20;91.10;;;;;;4921913;29;20379;-77
2022/09/25 04:13:33;;;;;;;12.35;6.90;;;9.20;91.10;;;;;;4909344;28;20047;-74
2022/09/25 04:16:00;;;;;;;9.70;5.60;;;9.20;91.20;;;;;;4928867;28;20115;-74
2022/09/25 04:18:33;;;;;;;10.98;6.50;;;9.10;91.30;;;;;;4921149;28;20177;-75
2022/09/25 04:21:05;;;;;;;16.35;6.80;;;9.10;91.30;;;;;;4922676;29;20096;-77
2022/09/25 04:23:31;;;;;;;11.82;6.30;;;9.20;91.50;;;;;;4923272;28;20044;-75
2022/09/25 04:25:57;;;;;;;10.65;6.75;;;9.20;91.60;;;;;;4901560;29;20028;-75
2022/09/25 04:28:23;;;;;;;9.27;6.10;;;9.20;91.70;;;;;;4917757;28;20112;-75
2022/09/25 04:30:50;;;;;;;13.15;6.88;;;9.20;91.70;;;;;;4920275;29;20529;-75
2022/09/25 04:36:01;;;;;;;13.30;6.75;;;9.30;91.80;;;;;;4914354;29;20042;-75
2022/09/25 04:38:26;;;;;;;11.90;6.20;;;9.30;91.80;;;;;;4911788;28;20372;-75
2022/09/25 04:40:52;;;;;;;12.07;6.30;;;9.30;91.90;;;;;;4923772;29;20048;-75
2022/09/25 04:43:17;;;;;;;12.95;5.80;;;9.30;91.90;;;;;;4917675;29;20032;-75
2022/09/25 04:45:45;;;;;;;12.25;6.88;;;9.30;91.90;;;;;;4919313;29;20666;-75
2022/09/25 04:48:11;;;;;;;12.25;7.35;;;9.40;91.90;;;;;;4925397;29;20032;-74
2022/09/25 04:50:38;;;;;;;12.02;7.47;;;9.40;91.90;;;;;;4932560;29;20032;-75
2022/09/25 04:53:03;;;;;;;13.20;6.95;;;9.40;91.90;;;;;;4918160;29;20029;-74
2022/09/25 04:55:29;;;;;;;11.25;7.15;;;9.50;91.90;;;;;;4933861;29;20478;-75
2022/09/25 04:57:57;;;;;;;19.80;8.05;;;9.50;92.00;;;;;;4927137;29;20061;-74
2022/09/25 05:00:25;;;;;;;12.00;6.97;;;9.50;92.00;;;;;;4906793;29;20031;-75
2022/09/25 05:02:51;;;;;;;12.30;7.22;;;9.50;92.00;;;;;;4922294;29;20059;-77
2022/09/25 05:05:17;;;;;;;12.10;7.70;;;9.50;92.00;;;;;;4920587;29;20489;-75
2022/09/25 05:07:57;;;;;;;12.57;6.70;;;9.50;91.90;;;;;;4921947;29;20044;-74
2022/09/25 05:10:29;;;;;;;13.02;6.95;;;9.50;91.90;;;;;;4923736;28;20023;-74
2022/09/25 05:12:59;;;;;;;11.45;7.03;;;9.50;91.90;;;;;;4926806;29;20146;-74
2022/09/25 05:15:27;;;;;;;11.68;6.60;;;9.50;91.90;;;;;;4922240;29;20048;-74
2022/09/25 05:18:10;;;;;;;11.93;6.75;;;9.50;91.90;;;;;;4920787;29;20038;-74
2022/09/25 05:20:36;;;;;;;13.50;6.75;;;9.60;91.90;;;;;;4912358;29;20377;-77
2022/09/25 05:23:03;;;;;;;13.20;6.93;;;9.50;91.90;;;;;;4919777;29;20637;-74
2022/09/25 05:25:29;;;;;;;13.27;6.35;;;9.50;91.80;;;;;;4906964;29;20146;-75
2022/09/25 05:27:58;;;;;;;15.43;6.53;;;9.50;91.90;;;;;;4920578;29;20107;-75
2022/09/25 05:30:25;;;;;;;12.68;6.35;;;9.40;91.80;;;;;;4913966;29;20451;-74
2022/09/25 05:32:52;;;;;;;11.18;7.07;;;9.40;91.70;;;;;;4927369;29;20042;-75
2022/09/25 05:35:20;;;;;;;12.55;6.90;;;9.40;91.60;;;;;;4915780;29;20323;-75
2022/09/25 05:37:46;;;;;;;10.93;6.72;;;9.40;91.60;;;;;;4898509;29;20538;-75
2022/09/25 05:40:14;;;;;;;10.32;6.68;;;9.30;91.60;;;;;;4918400;29;20404;-75
2022/09/25 05:42:42;;;;;;;11.75;6.50;;;9.30;91.60;;;;;;4910346;29;20071;-76
2022/09/25 05:45:16;;;;;;;10.57;5.88;;;9.30;91.60;;;;;;4915651;29;20142;-75
2022/09/25 05:47:42;;;;;;;10.45;5.90;;;9.30;91.70;;;;;;4920564;29;20562;-76
2022/09/25 05:50:10;;;;;;;11.00;6.28;;;9.30;91.70;;;;;;4918519;29;20062;-76
2022/09/25 05:52:37;;;;;;;10.57;5.78;;;9.40;91.60;;;;;;4924739;29;20150;-75
2022/09/25 05:55:05;;;;;;;11.77;6.07;;;9.30;91.60;;;;;;4918974;28;20098;-75
2022/09/25 05:57:31;;;;;;;11.82;6.45;;;9.30;91.60;;;;;;4921110;29;20171;-76
2022/09/25 05:59:57;;;;;;;12.05;6.13;;;9.30;91.70;;;;;;4915011;29;20036;-76
2022/09/25 06:02:23;;;;;;;10.40;6.53;;;9.30;91.60;;;;;;4915720;29;20066;-77
2022/09/25 06:04:49;;;;;;;8.73;5.45;;;9.40;91.70;;;;;;4916031;28;20476;-75
2022/09/25 06:07:14;;;;;;;11.93;6.15;;;9.40;91.70;;;;;;4914696;29;20523;-76
2022/09/25 06:09:40;;;;;;;10.05;6.30;;;9.40;91.60;;;;;;4918150;28;20106;-75
2022/09/25 06:12:06;;;;;;;11.18;6.03;;;9.40;91.50;;;;;;4919524;29;20516;-75
2022/09/25 06:14:34;;;;;;;8.45;5.43;;;9.50;91.60;;;;;;4907640;29;20050;-76
2022/09/25 06:17:00;;;;;;;14.55;6.88;;;9.50;91.60;;;;;;4903475;29;20024;-74
2022/09/25 06:19:28;;;;;;;13.20;6.95;;;9.50;91.50;;;;;;4900917;28;20037;-75
2022/09/25 06:21:54;;;;;;;8.00;5.03;;;9.60;91.60;;;;;;4899729;29;20033;-74
2022/09/25 06:24:19;;;;;;;10.85;5.53;;;9.80;91.80;;;;;;4901045;29;20494;-75
2022/09/25 06:26:46;;;;;;;10.45;5.20;;;10.20;91.50;;;;;;4897359;29;20040;-76
2022/09/25 06:29:11;;;;;;;9.90;5.50;;;10.70;90.90;;;;;;4900075;29;20032;-75
2022/09/25 06:31:38;;;;;;;8.82;4.90;;;11.40;89.50;;;;;;4903011;29;20377;-76
2022/09/25 06:34:04;;;;;;;9.20;4.43;;;12.10;87.10;;;;;;4898928;29;20048;-73
2022/09/25 06:36:31;;;;;;;9.60;5.28;;;12.70;83.40;;;;;;4905345;29;20032;-75
2022/09/25 06:38:57;;;;;;;9.98;4.93;;;13.10;82.20;;;;;;4899819;29;20805;-75
2022/09/25 06:41:23;;;;;;;9.82;4.97;;;13.20;79.40;;;;;;4900150;29;20052;-75
2022/09/25 06:43:50;;;;;;;12.13;5.10;;;12.90;80.70;;;;;;4928106;28;20044;-75
2022/09/25 06:46:17;;;;;;;9.52;6.13;;;12.50;81.50;;;;;;4905111;29;20028;-74
2022/09/25 06:48:43;;;;;;;11.27;5.72;;;12.10;82.50;;;;;;4897014;29;20044;-75
2022/09/25 06:51:08;;;;;;;8.27;5.65;;;11.90;83.50;;;;;;4907693;29;20115;-76
2022/09/25 06:53:34;;;;;;;10.38;6.25;;;11.70;84.50;;;;;;4895945;29;20163;-74
2022/09/25 06:56:00;;;;;;;9.18;5.50;;;11.60;85.10;;;;;;4902502;29;20040;-74
2022/09/25 06:58:29;;;;;;;8.73;6.03;;;11.50;85.90;;;;;;4896736;29;20471;-74
2022/09/25 07:00:55;;;;;;;10.98;6.60;;;11.40;86.40;;;;;;4899695;29;20043;-75
2022/09/25 07:06:09;;;;;;;9.65;6.28;;;11.40;87.00;;;;;;4900365;29;20478;-75
2022/09/25 07:08:35;;;;;;;9.52;6.20;;;11.40;87.30;;;;;;4899893;29;20064;-75
2022/09/25 07:11:01;;;;;;;12.70;6.43;;;11.40;87.40;;;;;;4904329;29;20119;-75
2022/09/25 07:13:30;;;;;;;10.77;5.95;;;11.50;87.60;;;;;;4917162;29;20069;-74
2022/09/25 07:16:01;;;;;;;11.65;7.75;;;11.50;87.70;;;;;;4920194;29;20036;-75
2022/09/25 07:18:28;;;;;;;13.05;8.13;;;11.50;88.00;;;;;;4916347;29;20050;-77
2022/09/25 07:21:04;;;;;;;15.48;7.60;;;11.60;88.30;;;;;;4913286;29;20433;-76
2022/09/25 07:23:30;;;;;;;10.50;7.80;;;11.70;88.80;;;;;;4912570;28;20284;-74
2022/09/25 07:26:02;;;;;;;13.10;8.00;;;11.80;88.90;;;;;;4914909;29;20099;-76
2022/09/25 07:28:28;;;;;;;13.45;7.80;;;11.90;89.20;;;;;;4925283;29;20115;-76
2022/09/25 07:30:53;;;;;;;14.18;8.68;;;12.10;89.50;;;;;;4930211;29;20052;-76
2022/09/25 07:33:22;;;;;;;15.15;9.02;;;12.20;89.40;;;;;;4931334;29;20484;-74
2022/09/25 07:35:47;;;;;;;13.00;8.57;;;12.40;89.40;;;;;;4917231;29;20090;-75
2022/09/25 07:38:13;;;;;;;14.70;8.40;;;12.60;89.30;;;;;;4917497;29;20495;-75
2022/09/25 07:40:38;;;;;;;12.00;7.90;;;12.90;89.20;;;;;;4920022;29;20035;-75
2022/09/25 07:43:04;;;;;;;15.40;7.57;;;13.10;88.30;;;;;;4916404;29;20039;-81
2022/09/25 07:45:32;;;;;;;14.73;7.55;;;13.40;88.60;;;;;;4916909;29;20028;-78
2022/09/25 07:48:02;;;;;;;11.90;7.68;;;13.50;86.70;;;;;;4923472;29;20028;-80
2022/09/25 07:50:29;;;;;;;14.95;6.57;;;13.70;86.20;;;;;;4918117;28;20535;-80
2022/09/25 07:52:55;;;;;;;12.90;6.82;;;13.90;86.10;;;;;;4933297;28;20040;-80
2022/09/25 07:55:21;;;;;;;10.57;6.25;;;14.10;85.00;;;;;;4921168;29;22262;-80
2022/09/25 07:57:48;;;;;;;11.73;7.03;;;14.10;84.20;;;;;;4924371;29;20120;-79
2022/09/25 08:00:14;;;;;;;11.88;7.15;;;14.00;84.40;;;;;;4920866;29;20032;-79
2022/09/25 08:02:39;;;;;;;13.13;7.78;;;13.90;84.60;;;;;;4920894;29;20040;-80
2022/09/25 08:05:06;;;;;;;11.80;7.50;;;13.80;84.90;;;;;;4922059;29;20074;-79
2022/09/25 08:07:32;;;;;;;12.70;7.45;;;13.70;85.80;;;;;;4922792;29;20050;-79
2022/09/25 08:09:57;;;;;;;13.05;7.70;;;13.60;86.20;;;;;;4899847;29;20028;-78
2022/09/25 08:12:24;;;;;;;12.20;7.28;;;13.50;86.70;;;;;;4921503;29;20036;-81
2022/09/25 08:14:50;;;;;;;14.15;7.28;;;13.30;87.20;;;;;;4920606;29;20043;-80
2022/09/25 08:17:16;;;;;;;10.98;7.38;;;13.40;87.10;;;;;;4917840;29;20036;-79
2022/09/25 08:19:41;;;;;;;12.27;7.75;;;13.30;86.50;;;;;;4918804;28;20046;-79
2022/09/25 08:22:07;;;;;;;12.20;7.63;;;13.40;86.60;;;;;;4916312;29;20047;-80
2022/09/25 08:24:33;;;;;;;17.92;8.15;;;13.50;86.70;;;;;;4919979;29;20365;-80
2022/09/25 08:26:58;;;;;;;12.50;7.75;;;13.50;86.80;;;;;;4917525;29;20091;-82
2022/09/25 08:29:24;;;;;;;13.25;6.93;;;13.60;87.10;;;;;;4926169;29;20367;-80
2022/09/25 08:31:50;;;;;;;11.30;7.70;;;13.60;86.90;;;;;;4900892;29;20122;-79
2022/09/25 08:34:16;;;;;;;12.15;5.00;;;13.60;87.20;;;;;;4920686;28;20051;-80
2022/09/25 08:36:42;;;;;;;9.50;4.70;;;13.60;86.10;;;;;;4919739;29;20052;-81
2022/09/25 08:39:08;;;;;;;9.30;4.65;;;13.50;86.20;;;;;;4916939;28;20029;-79
2022/09/25 08:41:51;;;;;;;8.70;4.25;;;13.40;86.50;;;;;;4916997;28;20067;-78
2022/09/25 08:44:46;;;;;;;10.07;3.97;;;13.40;86.60;;;;;;4920661;29;20468;-79
2022/09/25 08:50:17;;;;;;;9.05;4.10;;;13.50;86.50;;;;;;4930729;28;20031;-79
2022/09/25 08:52:48;;;;;;;7.38;3.65;;;13.60;86.70;;;;;;4927690;29;20039;-80
2022/09/25 08:55:20;;;;;;;6.78;3.55;;;13.80;86.70;;;;;;4918887;29;20032;-78
2022/09/25 08:57:47;;;;;;;8.07;4.32;;;13.90;86.20;;;;;;4924109;29;20059;-77
2022/09/25 09:00:23;;;;;;;8.68;4.00;;;14.10;85.80;;;;;;4924318;29;20039;-77
2022/09/25 09:02:57;;;;;;;7.20;3.20;;;14.20;84.80;;;;;;4919755;29;20051;-79
2022/09/25 09:05:28;;;;;;;9.00;3.53;;;14.30;85.10;;;;;;4923332;29;20040;-79
2022/09/25 09:08:06;;;;;;;9.23;3.72;;;14.40;83.80;;;;;;4922583;29;20040;-78
2022/09/25 09:10:34;;;;;;;9.27;3.58;;;14.60;84.40;;;;;;4922055;29;20032;-79
2022/09/25 09:13:17;;;;;;;7.75;3.65;;;14.60;84.20;;;;;;4925191;29;20039;-78
2022/09/25 09:16:08;;;;;;;8.82;3.38;;;14.60;84.50;;;;;;4925063;28;20078;-77
2022/09/25 09:18:39;;;;;;;8.65;3.63;;;14.50;84.40;;;;;;4908378;29;20061;-78
2022/09/25 09:21:21;;;;;;;8.80;3.53;;;14.50;84.50;;;;;;4925123;29;20087;-79
2022/09/25 09:24:15;;;;;;;6.93;3.20;;;14.50;83.70;;;;;;4920690;29;20410;-78
2022/09/25 09:26:52;;;;;;;5.63;2.90;;;14.50;83.10;;;;;;4917242;29;20460;-80
2022/09/25 09:29:37;;;;;;;7.85;2.95;;;14.60;83.10;;;;;;4917879;29;20323;-78
2022/09/25 09:32:34;;;;;;;9.68;3.80;;;14.60;83.40;;;;;;4920366;29;20040;-78
2022/09/25 09:35:25;;;;;;;6.68;3.00;;;14.70;83.40;;;;;;4923773;28;20044;-79
2022/09/25 09:38:25;;;;;;;6.00;2.80;;;14.80;81.10;;;;;;4925915;29;20035;-79
2022/09/25 09:41:20;;;;;;;5.18;2.50;;;15.00;81.20;;;;;;4918705;29;20040;-79
2022/09/25 09:44:05;;;;;;;6.20;2.30;;;15.00;80.70;;;;;;4908915;28;20036;-80
2022/09/25 09:46:51;;;;;;;7.70;3.22;;;15.10;80.40;;;;;;4923694;29;20425;-79
2022/09/25 09:49:28;;;;;;;9.05;3.00;;;15.40;78.90;;;;;;4918876;28;21764;-80
2022/09/25 09:52:36;;;;;;;4.68;2.10;;;15.80;78.20;;;;;;4922506;29;20036;-79
2022/09/25 09:55:20;;;;;;;5.05;2.08;;;15.70;75.70;;;;;;4914268;29;20052;-79
2022/09/25 09:57:56;;;;;;;4.88;2.03;;;15.80;75.00;;;;;;4932244;28;20039;-80
2022/09/25 10:00:23;;;;;;;4.65;1.83;;;16.20;75.60;;;;;;4915406;29;20103;-79
2022/09/25 10:03:13;;;;;;;5.22;2.20;;;16.60;74.00;;;;;;4918134;29;20036;-79
2022/09/25 10:05:46;;;;;;;5.28;2.13;;;16.80;72.60;;;;;;4914471;29;20028;-80
2022/09/25 10:08:13;;;;;;;6.28;2.22;;;17.30;72.50;;;;;;4928712;29;20052;-79
2022/09/25 10:10:46;;;;;;;6.07;2.22;;;17.40;72.30;;;;;;4938606;28;20079;-80
2022/09/25 10:13:25;;;;;;;6.65;2.45;;;17.30;71.30;;;;;;4924141;29;20048;-80
2022/09/25 10:16:00;;;;;;;4.72;1.77;;;16.90;71.00;;;;;;4936388;28;20046;-80
2022/09/25 10:18:30;;;;;;;3.70;1.77;;;16.80;72.10;;;;;;4925746;28;20059;-79
2022/09/25 10:21:20;;;;;;;4.20;1.85;;;17.00;72.50;;;;;;4921666;29;20488;-79
2022/09/25 10:23:45;;;;;;;5.45;1.70;;;17.00;70.80;;;;;;4922665;29;20043;-80
2022/09/25 10:26:32;;;;;;;5.40;1.98;;;16.80;69.90;;;;;;4923718;28;20039;-80
2022/09/25 10:29:22;;;;;;;4.15;1.58;;;16.80;71.00;;;;;;4915437;28;20070;-81
2022/09/25 10:32:02;;;;;;;5.05;1.70;;;16.90;70.70;;;;;;4922253;28;20408;-81
2022/09/25 10:34:30;;;;;;;4.25;1.60;;;17.00;70.90;;;;;;4912290;29;20067;-80
2022/09/25 10:36:57;;;;;;;5.35;1.77;;;17.00;69.10;;;;;;4925764;28;20076;-81
2022/09/25 10:39:38;;;;;;;5.75;2.15;;;16.80;70.10;;;;;;4925382;28;20114;-79
2022/09/25 10:42:26;;;;;;;6.47;2.30;;;16.80;70.00;;;;;;4916867;29;20080;-81
2022/09/25 10:44:55;;;;;;;4.53;1.92;;;16.80;71.40;;;;;;4923748;29;20041;-81
2022/09/25 10:50:17;;;;;;;3.67;1.70;;;16.60;70.60;;;;;;4935973;28;20098;-80
2022/09/25 10:52:52;;;;;;;6.00;2.38;;;16.70;69.10;;;;;;4923314;29;20051;-80
2022/09/25 10:55:32;;;;;;;4.07;1.58;;;17.00;70.40;;;;;;4923062;29;20046;-80
2022/09/25 10:58:09;;;;;;;6.00;2.10;;;17.10;68.50;;;;;;4922934;29;20514;-80
2022/09/25 11:00:53;;;;;;;5.97;2.20;;;17.30;69.10;;;;;;4908906;29;20943;-80
2022/09/25 11:03:45;;;;;;;5.57;1.17;;;17.60;68.30;;;;;;4916017;29;20380;-80
2022/09/25 11:06:22;;;;;;;4.38;1.70;;;17.60;65.10;;;;;;4910956;29;20382;-79
2022/09/25 11:09:08;;;;;;;3.58;1.30;;;17.60;63.40;;;;;;4926178;28;20221;-80
2022/09/25 11:11:35;;;;;;;4.95;1.73;;;17.60;62.60;;;;;;4906568;29;20032;-80
2022/09/25 11:14:03;;;;;;;5.25;2.03;;;17.90;64.40;;;;;;4921804;29;20044;-79
2022/09/25 11:17:07;;;;;;;5.20;1.75;;;17.70;65.60;;;;;;4925636;29;20032;-79
2022/09/25 11:19:34;;;;;;;3.95;1.15;;;17.40;64.40;;;;;;4896623;29;20384;-79
2022/09/25 11:22:24;;;;;;;4.28;1.23;;;17.20;63.40;;;;;;4924080;29;20353;-80
2022/09/25 11:25:09;;;;;;;3.72;1.17;;;17.20;63.80;;;;;;4921248;29;20535;-80
2022/09/25 11:27:52;;;;;;;3.65;1.70;;;17.10;63.90;;;;;;4919414;29;20039;-79
2022/09/25 11:30:19;;;;;;;4.30;1.30;;;17.00;63.70;;;;;;4920216;29;20088;-79
2022/09/25 11:32:51;;;;;;;3.78;1.25;;;17.10;64.40;;;;;;4920284;29;20112;-79
2022/09/25 11:35:23;;;;;;;5.50;1.67;;;17.10;64.60;;;;;;4923596;28;20502;-78
2022/09/25 11:38:04;;;;;;;6.43;1.92;;;17.10;66.30;;;;;;4921840;29;20134;-80
2022/09/25 11:41:11;;;;;;;7.20;2.50;;;16.80;68.90;;;;;;4923017;29;20036;-80
2022/09/25 11:43:39;;;;;;;4.30;1.85;;;16.60;70.70;;;;;;4907843;29;20423;-79
2022/09/25 11:46:18;;;;;;;8.20;2.47;;;16.70;71.50;;;;;;4936504;28;20430;-80
2022/09/25 11:49:01;;;;;;;6.15;2.45;;;16.70;71.90;;;;;;4924638;29;20032;-79
2022/09/25 11:52:07;;;;;;;7.15;2.50;;;16.60;71.20;;;;;;4905310;29;20038;-81
2022/09/25 11:54:51;;;;;;;8.82;2.40;;;16.90;72.20;;;;;;4921534;28;20043;-81
2022/09/25 11:57:41;;;;;;;7.03;2.27;;;17.10;71.90;;;;;;4908458;29;20035;-81
2022/09/25 12:00:14;;;;;;;5.35;1.98;;;17.10;71.20;;;;;;4919214;28;20197;-81
2022/09/25 12:03:08;;;;;;;7.15;2.40;;;16.90;70.70;;;;;;4916132;29;20056;-81
2022/09/25 12:06:02;;;;;;;7.20;2.20;;;16.90;71.20;;;;;;4930642;29;20024;-79
2022/09/25 12:08:40;;;;;;;5.75;1.70;;;17.10;71.50;;;;;;4938844;28;20038;-79
2022/09/25 12:11:44;;;;;;;5.70;1.95;;;17.10;69.20;;;;;;4918899;29;20042;-81
2022/09/25 12:14:30;;;;;;;7.07;1.90;;;17.10;67.90;;;;;;4920535;28;20040;-82
2022/09/25 12:17:16;;;;;;;3.78;1.70;;;17.10;69.60;;;;;;4919166;29;20055;-82
2022/09/25 12:20:10;;;;;;;6.57;1.63;;;17.30;69.20;;;;;;4915734;29;20507;-82
2022/09/25 12:22:51;;;;;;;4.45;1.77;;;17.60;67.80;;;;;;4920098;29;20067;-82
2022/09/25 12:25:33;;;;;;;5.28;1.70;;;17.70;67.00;;;;;;4918869;29;20048;-81
2022/09/25 12:28:20;;;;;;;3.35;1.30;;;17.80;67.10;;;;;;4920104;29;20233;-80
2022/09/25 12:31:29;;;;;;;4.18;1.50;;;18.10;66.00;;;;;;4916546;29;20483;-81
2022/09/25 12:34:00;;;;;;;6.93;1.65;;;18.50;65.00;;;;;;4905002;29;20361;-82
2022/09/25 12:36:44;;;;;;;3.28;1.50;;;18.60;63.40;;;;;;4918920;29;20040;-81
2022/09/25 12:39:36;;;;;;;4.10;1.58;;;18.60;62.70;;;;;;4916519;28;20107;-81
2022/09/25 12:42:29;;;;;;;4.25;1.40;;;18.70;63.80;;;;;;4909445;29;20126;-80
2022/09/25 12:45:14;;;;;;;4.35;1.23;;;18.40;62.80;;;;;;4918301;28;20032;-81
2022/09/25 12:48:27;;;;;;;4.68;1.70;;;18.50;64.00;;;;;;4920562;28;20445;-81
2022/09/25 12:51:28;;;;;;;4.72;1.60;;;18.40;64.60;;;;;;4913183;28;20035;-81
2022/09/25 12:54:34;;;;;;;5.03;1.60;;;18.60;62.70;;;;;;4913490;28;20048;-81
2022/09/25 12:57:30;;;;;;;2.67;1.55;;;18.40;61.80;;;;;;4908801;29;20020;-81
2022/09/25 13:00:14;;;;;;;2.33;1.23;;;18.40;61.00;;;;;;4919356;28;20333;-81
2022/09/25 13:02:43;;;;;;;3.60;1.30;;;18.30;61.80;;;;;;4924188;29;20040;-80
2022/09/25 13:05:32;;;;;;;3.80;1.20;;;18.30;61.40;;;;;;4922603;29;20036;-81
2022/09/25 13:08:15;;;;;;;2.95;1.30;;;18.50;60.40;;;;;;4911271;29;20646;-81
2022/09/25 13:11:05;;;;;;;7.30;1.83;;;18.40;61.60;;;;;;4915374;28;20051;-82
2022/09/25 13:13:39;;;;;;;4.32;1.50;;;18.40;61.90;;;;;;4918450;28;20044;-82
2022/09/25 13:16:05;;;;;;;4.95;1.50;;;18.30;62.40;;;;;;4925170;29;20371;-81
2022/09/25 13:18:33;;;;;;;4.20;1.50;;;18.30;62.60;;;;;;4921215;28;20048;-81
2022/09/25 13:21:34;;;;;;;3.72;1.30;;;18.20;62.60;;;;;;4928717;29;20039;-81
2022/09/25 13:24:00;;;;;;;6.28;2.10;;;18.10;61.90;;;;;;4931656;28;20062;-82
2022/09/25 13:26:27;;;;;;;2.70;1.30;;;18.00;62.50;;;;;;4945674;29;20039;-81
2022/09/25 13:29:03;;;;;;;4.57;1.60;;;17.90;61.90;;;;;;4924253;28;20032;-81
2022/09/25 13:31:31;;;;;;;3.60;1.50;;;17.80;63.30;;;;;;4924611;29;20035;-81